Weather History for KOKV - March, 2013

Change the Weather History Date:

Thursday, March 14, 2013

  Actual Average Record
Temperature  
Mean Temperature 36 °F -  
Max Temperature 41 °F 50 °F 78 °F (2012)
Min Temperature 30 °F 32 °F 22 °F (1987)
Degree Days  
Heating Degree Days 30    
Moisture  
Dew Point 20 °F    
Average Humidity 56    
Maximum Humidity 69    
Minimum Humidity 42    
Precipitation  
Precipitation 0.00 in - - ()
Sea Level Pressure  
Sea Level Pressure 30.08 in    
Wind  
Wind Speed 17 mph (WNW)    
Max Wind Speed 26 mph    
Max Gust Speed 38 mph    
Visibility 10 miles    
Events Snow    
Averages and records for this station are not official NWS values.
T = Trace of Precipitation, MM = Missing Value Source: NWS Daily Summary

Daily Weather History Graph

Daily Weather History Graph

Search for Another Location

Airport or City:

Trip Planner

Search our weather history database for the weather conditions in past years. The results will help you decide how hot, cold, wet, or windy it might be!

Date:

Astronomy

Mar. 14, 2013 Rise Set
Actual Time 7:25 AM EDT 7:18 PM EDT
Civil Twilight 6:58 AM EDT 7:45 PM EDT
Nautical Twilight 6:27 AM EDT 8:16 PM EDT
Astronomical Twilight 5:56 AM EDT 8:47 PM EDT
Moon 8:39 AM EDT (3/14) 10:31 PM EDT (3/14)
Length of Visible Light 12h 47m
Length of Day
11h 53m
Waxing Crescent, 9% of the Moon is Illuminated
Mar 14
Waxing Crescent
Mar 19
First Quarter
Mar 27
Full
Apr 3
Last Quarter
Apr 10
New

Hourly Weather History & Observations

Time (EDT) Temp. Windchill Dew Point Humidity Pressure Visibility Wind Dir Wind Speed Gust Speed Precip Events Conditions
12:15 AM 32.0 °F 22.1 °F 21.2 °F 64% 30.07 in 10.0 mi West 13.8 mph 19.6 mph N/A   Overcast
12:35 AM 32.0 °F 19.5 °F 19.4 °F 60% 30.06 in 10.0 mi WNW 21.9 mph 27.6 mph N/A   Overcast
12:55 AM 32.0 °F 19.5 °F 19.4 °F 60% 30.05 in 10.0 mi WNW 21.9 mph 38.0 mph N/A   Overcast
1:15 AM 32.0 °F 19.5 °F 19.4 °F 60% 30.05 in 10.0 mi WNW 21.9 mph 32.2 mph N/A   Overcast
1:35 AM 32.0 °F 22.1 °F 21.2 °F 64% 30.07 in 10.0 mi West 13.8 mph 28.8 mph N/A   Overcast
1:55 AM 32.0 °F 20.8 °F 21.2 °F 64% 30.07 in 10.0 mi West 17.3 mph 23.0 mph N/A   Overcast
2:15 AM 32.0 °F 21.6 °F 21.2 °F 64% 30.08 in 10.0 mi WNW 15.0 mph - N/A   Overcast
2:35 AM 32.0 °F 23.0 °F 23.0 °F 69% 30.08 in 10.0 mi WNW 11.5 mph - N/A Snow Light Snow
2:55 AM 30.2 °F 17.4 °F 21.2 °F 69% 30.08 in 10.0 mi WNW 20.7 mph 28.8 mph N/A   Mostly Cloudy
3:15 AM 30.2 °F 18.5 °F 21.2 °F 69% 30.08 in 10.0 mi NW 17.3 mph 21.9 mph N/A   Mostly Cloudy
3:35 AM 32.0 °F 20.1 °F 21.2 °F 64% 30.08 in 10.0 mi WNW 19.6 mph - N/A   Overcast
3:55 AM 30.2 °F 20.8 °F 21.2 °F 69% 30.07 in 10.0 mi WNW 11.5 mph 16.1 mph N/A   Overcast
4:15 AM 30.2 °F 19.3 °F 21.2 °F 69% 30.08 in 10.0 mi WNW 15.0 mph 19.6 mph N/A   Overcast
4:35 AM 30.2 °F 20.2 °F 19.4 °F 64% 30.07 in 10.0 mi WNW 12.7 mph 21.9 mph N/A   Overcast
4:55 AM 30.2 °F 18.1 °F 19.4 °F 64% 30.06 in 10.0 mi West 18.4 mph 26.5 mph N/A   Scattered Clouds
5:15 AM 30.2 °F 18.9 °F 19.4 °F 64% 30.06 in 10.0 mi WNW 16.1 mph 21.9 mph N/A   Scattered Clouds
5:35 AM 30.2 °F 18.1 °F 19.4 °F 64% 30.07 in 10.0 mi WNW 18.4 mph 27.6 mph N/A   Mostly Cloudy
5:55 AM 30.2 °F 18.9 °F 17.6 °F 60% 30.08 in 10.0 mi WNW 16.1 mph 24.2 mph N/A   Mostly Cloudy
6:15 AM 30.2 °F 19.3 °F 19.4 °F 64% 30.09 in 10.0 mi WNW 15.0 mph 23.0 mph N/A   Overcast
6:35 AM 30.2 °F 21.9 °F 19.4 °F 64% 30.09 in 10.0 mi WNW 9.2 mph 20.7 mph N/A   Overcast
6:55 AM 30.2 °F 20.2 °F 17.6 °F 60% 30.10 in 10.0 mi WNW 12.7 mph 23.0 mph N/A   Mostly Cloudy
7:15 AM 30.2 °F 17.1 °F 19.4 °F 64% 30.10 in 10.0 mi WNW 21.9 mph 29.9 mph N/A   Overcast
7:35 AM 30.2 °F 19.3 °F 17.6 °F 60% 30.10 in 10.0 mi West 15.0 mph 28.8 mph N/A   Mostly Cloudy
7:55 AM 30.2 °F 18.9 °F 19.4 °F 64% 30.10 in 10.0 mi WNW 16.1 mph 24.2 mph N/A   Mostly Cloudy
8:15 AM 30.2 °F 16.8 °F 17.6 °F 60% 30.12 in 10.0 mi West 23.0 mph 29.9 mph N/A   Scattered Clouds
8:35 AM 30.2 °F 17.4 °F 17.6 °F 60% 30.12 in 10.0 mi WNW 20.7 mph 31.1 mph N/A   Scattered Clouds
8:55 AM 32.0 °F 19.5 °F 19.4 °F 60% 30.12 in 10.0 mi WNW 21.9 mph 31.1 mph N/A   Scattered Clouds
9:15 AM 32.0 °F 19.5 °F 19.4 °F 60% 30.13 in 10.0 mi West 21.9 mph 28.8 mph N/A   Scattered Clouds
9:35 AM 32.0 °F 19.5 °F 19.4 °F 60% 30.13 in 10.0 mi WNW 21.9 mph 28.8 mph N/A   Scattered Clouds
9:55 AM 32.0 °F 20.1 °F 19.4 °F 60% 30.14 in 10.0 mi WNW 19.6 mph 29.9 mph N/A   Scattered Clouds
10:15 AM 32.0 °F 19.2 °F 19.4 °F 60% 30.14 in 10.0 mi WNW 23.0 mph 29.9 mph N/A   Scattered Clouds
10:35 AM 32.0 °F 18.6 °F 19.4 °F 60% 30.13 in 10.0 mi WNW 25.3 mph 33.4 mph N/A   Scattered Clouds
10:55 AM 33.8 °F 23.2 °F 21.2 °F 60% 30.13 in 10.0 mi WNW 17.3 mph 23.0 mph N/A   Scattered Clouds
11:15 AM 33.8 °F 21.0 °F 21.2 °F 60% 30.12 in 10.0 mi WNW 25.3 mph 33.4 mph N/A   Clear
11:35 AM 35.6 °F 23.7 °F 21.2 °F 56% 30.12 in 10.0 mi WNW 24.2 mph 29.9 mph N/A   Scattered Clouds
11:55 AM 35.6 °F 23.4 °F 21.2 °F 56% 30.11 in 10.0 mi NW 25.3 mph 31.1 mph N/A   Scattered Clouds
12:15 PM 35.6 °F 26.2 °F 21.2 °F 56% 30.11 in 10.0 mi West 15.0 mph 28.8 mph N/A   Scattered Clouds
12:35 PM 37.4 °F 26.6 °F 21.2 °F 52% 30.10 in 10.0 mi WNW 21.9 mph 38.0 mph N/A   Scattered Clouds
12:55 PM 37.4 °F 25.6 °F 21.2 °F 52% 30.09 in 10.0 mi NW 26.5 mph 32.2 mph N/A   Clear
1:15 PM 37.4 °F 27.8 °F 21.2 °F 52% 30.09 in 10.0 mi NW 17.3 mph 29.9 mph N/A   Clear
1:35 PM 39.2 °F 28.3 °F 21.2 °F 49% 30.08 in 10.0 mi WNW 25.3 mph 33.4 mph N/A   Clear
1:55 PM 39.2 °F 29.8 °F 21.2 °F 49% 30.08 in 10.0 mi WNW 18.4 mph 36.8 mph N/A   Scattered Clouds
2:15 PM 41.0 °F 31.6 °F 21.2 °F 45% 30.07 in 10.0 mi West 20.7 mph 31.1 mph N/A   Scattered Clouds
2:35 PM 41.0 °F 32.5 °F 21.2 °F 45% 30.07 in 10.0 mi WNW 17.3 mph 27.6 mph N/A   Scattered Clouds
2:55 PM 41.0 °F 32.2 °F 21.2 °F 45% 30.06 in 10.0 mi WNW 18.4 mph 26.5 mph N/A   Scattered Clouds
3:15 PM 41.0 °F 30.7 °F 21.2 °F 45% 30.06 in 10.0 mi NW 25.3 mph 31.1 mph N/A   Scattered Clouds
3:35 PM 41.0 °F 31.9 °F 21.2 °F 45% 30.05 in 10.0 mi NW 19.6 mph 34.5 mph N/A   Scattered Clouds
3:55 PM 41.0 °F 31.9 °F 21.2 °F 45% 30.06 in 10.0 mi West 19.6 mph 27.6 mph N/A   Scattered Clouds
4:15 PM 41.0 °F 32.8 °F 21.2 °F 45% 30.06 in 10.0 mi WNW 16.1 mph 27.6 mph N/A   Scattered Clouds
4:35 PM 41.0 °F 30.9 °F 21.2 °F 45% 30.06 in 10.0 mi WNW 24.2 mph 32.2 mph N/A   Clear
4:55 PM 41.0 °F 31.6 °F 21.2 °F 45% 30.06 in 10.0 mi WNW 20.7 mph 29.9 mph N/A   Scattered Clouds
5:15 PM 41.0 °F 31.9 °F 21.2 °F 45% 30.06 in 10.0 mi WNW 19.6 mph 27.6 mph N/A   Scattered Clouds
5:55 PM 41.0 °F 32.5 °F 21.2 °F 45% 30.05 in 10.0 mi West 17.3 mph 27.6 mph N/A   Clear
6:15 PM 41.0 °F 32.8 °F 19.4 °F 42% 30.05 in 10.0 mi West 16.1 mph 24.2 mph N/A   Clear
6:35 PM 39.2 °F 30.8 °F 19.4 °F 45% 30.06 in 10.0 mi WNW 15.0 mph - N/A   Clear
6:55 PM 39.2 °F 30.5 °F 19.4 °F 45% 30.06 in 10.0 mi West 16.1 mph 19.6 mph N/A   Scattered Clouds
7:15 PM 39.2 °F 30.2 °F 19.4 °F 45% 30.05 in 10.0 mi West 17.3 mph 28.8 mph N/A   Scattered Clouds
7:35 PM 37.4 °F 29.8 °F 19.4 °F 48% 30.07 in 10.0 mi West 11.5 mph 20.7 mph N/A   Clear
7:55 PM 37.4 °F 29.3 °F 19.4 °F 48% 30.07 in 10.0 mi West 12.7 mph - N/A   Clear
8:15 PM 37.4 °F 28.9 °F 19.4 °F 48% 30.06 in 10.0 mi West 13.8 mph 25.3 mph N/A   Clear
8:35 PM 37.4 °F 27.5 °F 19.4 °F 48% 30.06 in 10.0 mi West 18.4 mph 26.5 mph N/A   Clear
8:55 PM 37.4 °F 28.5 °F 21.2 °F 52% 30.07 in 10.0 mi West 15.0 mph 23.0 mph N/A   Clear
9:15 PM 37.4 °F 28.5 °F 21.2 °F 52% 30.07 in 10.0 mi WNW 15.0 mph 19.6 mph N/A   Mostly Cloudy
9:55 PM 37.4 °F 28.5 °F 21.2 °F 52% 30.07 in 10.0 mi WNW 15.0 mph 25.3 mph N/A   Scattered Clouds
10:15 PM 37.4 °F 28.9 °F 21.2 °F 52% 30.07 in 10.0 mi West 13.8 mph 21.9 mph N/A   Mostly Cloudy
10:35 PM 37.4 °F 30.8 °F 19.4 °F 48% 30.08 in 10.0 mi West 9.2 mph 19.6 mph N/A   Mostly Cloudy
10:55 PM 35.6 °F 31.7 °F 19.4 °F 52% 30.08 in 10.0 mi WNW 4.6 mph - N/A   Mostly Cloudy
11:15 PM 35.6 °F 27.1 °F 21.2 °F 56% 30.09 in 10.0 mi WNW 12.7 mph 17.3 mph N/A   Scattered Clouds
11:35 PM 35.6 °F - 21.2 °F 56% 30.09 in 10.0 mi Calm Calm - N/A   Scattered Clouds
11:55 PM 35.6 °F 30.7 °F 21.2 °F 56% 30.10 in 10.0 mi West 5.8 mph - N/A   Scattered Clouds